sensor_id;sensor_type;location;lat;lon;timestamp;P1;P2;P0
55518;PMS5003;41724;51.176;-0.708;2023-09-18T00:02:26;3;2;
55518;PMS5003;41724;51.176;-0.708;2023-09-18T00:04:53;2;2;
55518;PMS5003;41724;51.176;-0.708;2023-09-18T00:07:20;2;2;
55518;PMS5003;41724;51.176;-0.708;2023-09-18T00:09:47;2;2;
55518;PMS5003;41724;51.176;-0.708;2023-09-18T00:12:14;3;2;
55518;PMS5003;41724;51.176;-0.708;2023-09-18T00:14:41;2;1;
55518;PMS5003;41724;51.176;-0.708;2023-09-18T00:17:08;1;1;
55518;PMS5003;41724;51.176;-0.708;2023-09-18T00:19:34;2;2;
55518;PMS5003;41724;51.176;-0.708;2023-09-18T00:22:01;3;3;
55518;PMS5003;41724;51.176;-0.708;2023-09-18T00:24:29;2;2;
55518;PMS5003;41724;51.176;-0.708;2023-09-18T00:26:56;3;2;
55518;PMS5003;41724;51.176;-0.708;2023-09-18T00:29:23;2;2;
55518;PMS5003;41724;51.176;-0.708;2023-09-18T00:31:50;3;3;
55518;PMS5003;41724;51.176;-0.708;2023-09-18T00:34:17;2;2;
55518;PMS5003;41724;51.176;-0.708;2023-09-18T00:36:44;2;2;
55518;PMS5003;41724;51.176;-0.708;2023-09-18T00:39:10;2;2;
55518;PMS5003;41724;51.176;-0.708;2023-09-18T00:41:37;2;2;
55518;PMS5003;41724;51.176;-0.708;2023-09-18T00:44:04;1;1;
55518;PMS5003;41724;51.176;-0.708;2023-09-18T00:46:32;2;2;
55518;PMS5003;41724;51.176;-0.708;2023-09-18T00:49:00;1;1;
55518;PMS5003;41724;51.176;-0.708;2023-09-18T00:51:27;1;1;
55518;PMS5003;41724;51.176;-0.708;2023-09-18T00:53:54;1;1;
55518;PMS5003;41724;51.176;-0.708;2023-09-18T00:56:20;1;1;
55518;PMS5003;41724;51.176;-0.708;2023-09-18T00:58:47;2;1;
55518;PMS5003;41724;51.176;-0.708;2023-09-18T01:01:15;2;2;
55518;PMS5003;41724;51.176;-0.708;2023-09-18T01:03:45;0;0;
55518;PMS5003;41724;51.176;-0.708;2023-09-18T01:06:12;1;1;
55518;PMS5003;41724;51.176;-0.708;2023-09-18T01:08:39;2;1;
55518;PMS5003;41724;51.176;-0.708;2023-09-18T01:11:06;2;1;
55518;PMS5003;41724;51.176;-0.708;2023-09-18T01:13:41;1;1;
55518;PMS5003;41724;51.176;-0.708;2023-09-18T01:16:20;1;1;
55518;PMS5003;41724;51.176;-0.708;2023-09-18T01:18:54;1;1;
55518;PMS5003;41724;51.176;-0.708;2023-09-18T01:21:21;2;2;
55518;PMS5003;41724;51.176;-0.708;2023-09-18T01:23:49;1;1;
55518;PMS5003;41724;51.176;-0.708;2023-09-18T01:26:16;2;2;
55518;PMS5003;41724;51.176;-0.708;2023-09-18T01:28:43;1;1;
55518;PMS5003;41724;51.176;-0.708;2023-09-18T01:31:10;2;2;
55518;PMS5003;41724;51.176;-0.708;2023-09-18T01:33:37;2;2;
55518;PMS5003;41724;51.176;-0.708;2023-09-18T01:36:06;2;2;
55518;PMS5003;41724;51.176;-0.708;2023-09-18T01:38:34;3;3;
55518;PMS5003;41724;51.176;-0.708;2023-09-18T01:41:03;2;1;
55518;PMS5003;41724;51.176;-0.708;2023-09-18T01:43:30;2;2;
55518;PMS5003;41724;51.176;-0.708;2023-09-18T01:45:57;1;1;
55518;PMS5003;41724;51.176;-0.708;2023-09-18T01:48:25;2;2;
55518;PMS5003;41724;51.176;-0.708;2023-09-18T01:50:51;3;2;
55518;PMS5003;41724;51.176;-0.708;2023-09-18T01:53:18;2;2;
55518;PMS5003;41724;51.176;-0.708;2023-09-18T01:55:45;2;2;
55518;PMS5003;41724;51.176;-0.708;2023-09-18T01:58:14;4;4;
55518;PMS5003;41724;51.176;-0.708;2023-09-18T02:00:41;2;2;
55518;PMS5003;41724;51.176;-0.708;2023-09-18T02:03:08;3;2;
55518;PMS5003;41724;51.176;-0.708;2023-09-18T02:05:35;2;2;
55518;PMS5003;41724;51.176;-0.708;2023-09-18T02:08:05;2;2;
55518;PMS5003;41724;51.176;-0.708;2023-09-18T02:10:32;3;3;
55518;PMS5003;41724;51.176;-0.708;2023-09-18T02:12:59;2;2;
55518;PMS5003;41724;51.176;-0.708;2023-09-18T02:15:26;2;2;
55518;PMS5003;41724;51.176;-0.708;2023-09-18T02:17:52;2;1;
55518;PMS5003;41724;51.176;-0.708;2023-09-18T02:20:19;2;2;
55518;PMS5003;41724;51.176;-0.708;2023-09-18T02:22:46;3;3;
55518;PMS5003;41724;51.176;-0.708;2023-09-18T02:25:13;3;2;
55518;PMS5003;41724;51.176;-0.708;2023-09-18T02:27:40;3;3;
55518;PMS5003;41724;51.176;-0.708;2023-09-18T02:30:07;4;3;
55518;PMS5003;41724;51.176;-0.708;2023-09-18T02:32:34;7;6;
55518;PMS5003;41724;51.176;-0.708;2023-09-18T02:35:01;4;3;
55518;PMS5003;41724;51.176;-0.708;2023-09-18T02:37:29;3;3;
55518;PMS5003;41724;51.176;-0.708;2023-09-18T02:39:56;4;3;
55518;PMS5003;41724;51.176;-0.708;2023-09-18T02:42:23;4;4;
55518;PMS5003;41724;51.176;-0.708;2023-09-18T02:44:50;4;3;
55518;PMS5003;41724;51.176;-0.708;2023-09-18T02:47:17;7;5;
55518;PMS5003;41724;51.176;-0.708;2023-09-18T02:49:43;5;4;
55518;PMS5003;41724;51.176;-0.708;2023-09-18T02:52:10;6;6;
55518;PMS5003;41724;51.176;-0.708;2023-09-18T02:54:37;6;5;
55518;PMS5003;41724;51.176;-0.708;2023-09-18T02:57:04;6;4;
55518;PMS5003;41724;51.176;-0.708;2023-09-18T02:59:31;6;5;
55518;PMS5003;41724;51.176;-0.708;2023-09-18T03:01:58;5;5;
55518;PMS5003;41724;51.176;-0.708;2023-09-18T03:04:25;6;5;
55518;PMS5003;41724;51.176;-0.708;2023-09-18T03:06:52;2;2;
55518;PMS5003;41724;51.176;-0.708;2023-09-18T03:09:20;4;3;
55518;PMS5003;41724;51.176;-0.708;2023-09-18T03:11:47;4;4;
55518;PMS5003;41724;51.176;-0.708;2023-09-18T03:14:14;5;4;
55518;PMS5003;41724;51.176;-0.708;2023-09-18T03:16:41;3;3;
55518;PMS5003;41724;51.176;-0.708;2023-09-18T03:19:08;4;4;
55518;PMS5003;41724;51.176;-0.708;2023-09-18T03:21:35;4;3;
55518;PMS5003;41724;51.176;-0.708;2023-09-18T03:24:02;5;4;
55518;PMS5003;41724;51.176;-0.708;2023-09-18T03:26:28;6;6;
55518;PMS5003;41724;51.176;-0.708;2023-09-18T03:28:56;4;4;
55518;PMS5003;41724;51.176;-0.708;2023-09-18T03:31:25;5;5;
55518;PMS5003;41724;51.176;-0.708;2023-09-18T03:33:52;5;4;
55518;PMS5003;41724;51.176;-0.708;2023-09-18T03:36:20;7;7;
55518;PMS5003;41724;51.176;-0.708;2023-09-18T03:38:48;5;5;
55518;PMS5003;41724;51.176;-0.708;2023-09-18T03:41:15;5;5;
55518;PMS5003;41724;51.176;-0.708;2023-09-18T03:43:41;6;5;
55518;PMS5003;41724;51.176;-0.708;2023-09-18T03:46:08;7;7;
55518;PMS5003;41724;51.176;-0.708;2023-09-18T03:48:35;7;7;
55518;PMS5003;41724;51.176;-0.708;2023-09-18T03:51:02;7;7;
55518;PMS5003;41724;51.176;-0.708;2023-09-18T03:53:30;7;7;
55518;PMS5003;41724;51.176;-0.708;2023-09-18T03:55:57;10;8;
55518;PMS5003;41724;51.176;-0.708;2023-09-18T03:58:24;8;8;
55518;PMS5003;41724;51.176;-0.708;2023-09-18T04:00:51;11;11;
55518;PMS5003;41724;51.176;-0.708;2023-09-18T04:03:19;8;8;
55518;PMS5003;41724;51.176;-0.708;2023-09-18T04:05:46;10;9;
55518;PMS5003;41724;51.176;-0.708;2023-09-18T04:08:15;10;10;
55518;PMS5003;41724;51.176;-0.708;2023-09-18T04:10:42;12;11;
55518;PMS5003;41724;51.176;-0.708;2023-09-18T04:13:09;10;9;
55518;PMS5003;41724;51.176;-0.708;2023-09-18T04:15:37;10;10;
55518;PMS5003;41724;51.176;-0.708;2023-09-18T04:18:04;15;14;
55518;PMS5003;41724;51.176;-0.708;2023-09-18T04:20:31;9;9;
55518;PMS5003;41724;51.176;-0.708;2023-09-18T04:23:30;16;16;
55518;PMS5003;41724;51.176;-0.708;2023-09-18T04:25:57;15;13;
55518;PMS5003;41724;51.176;-0.708;2023-09-18T04:28:23;15;14;
55518;PMS5003;41724;51.176;-0.708;2023-09-18T04:30:50;12;11;
55518;PMS5003;41724;51.176;-0.708;2023-09-18T04:33:17;13;12;
55518;PMS5003;41724;51.176;-0.708;2023-09-18T04:35:46;14;13;
55518;PMS5003;41724;51.176;-0.708;2023-09-18T04:38:13;14;13;
55518;PMS5003;41724;51.176;-0.708;2023-09-18T04:40:40;14;13;
55518;PMS5003;41724;51.176;-0.708;2023-09-18T04:43:07;17;15;
55518;PMS5003;41724;51.176;-0.708;2023-09-18T04:45:34;15;13;
55518;PMS5003;41724;51.176;-0.708;2023-09-18T04:48:01;13;13;
55518;PMS5003;41724;51.176;-0.708;2023-09-18T04:50:29;18;17;
55518;PMS5003;41724;51.176;-0.708;2023-09-18T04:52:56;15;15;
55518;PMS5003;41724;51.176;-0.708;2023-09-18T04:55:23;14;14;
55518;PMS5003;41724;51.176;-0.708;2023-09-18T04:57:49;17;16;
55518;PMS5003;41724;51.176;-0.708;2023-09-18T05:00:16;14;13;
55518;PMS5003;41724;51.176;-0.708;2023-09-18T05:02:44;13;13;
55518;PMS5003;41724;51.176;-0.708;2023-09-18T05:05:11;12;12;
55518;PMS5003;41724;51.176;-0.708;2023-09-18T05:07:38;12;12;
55518;PMS5003;41724;51.176;-0.708;2023-09-18T05:10:06;10;10;
55518;PMS5003;41724;51.176;-0.708;2023-09-18T05:12:35;11;11;
55518;PMS5003;41724;51.176;-0.708;2023-09-18T05:15:04;13;13;
55518;PMS5003;41724;51.176;-0.708;2023-09-18T05:17:39;11;11;
55518;PMS5003;41724;51.176;-0.708;2023-09-18T05:20:07;14;11;
55518;PMS5003;41724;51.176;-0.708;2023-09-18T05:22:35;8;8;
55518;PMS5003;41724;51.176;-0.708;2023-09-18T05:25:02;10;9;
55518;PMS5003;41724;51.176;-0.708;2023-09-18T05:27:29;14;13;
55518;PMS5003;41724;51.176;-0.708;2023-09-18T05:29:57;11;11;
55518;PMS5003;41724;51.176;-0.708;2023-09-18T05:32:24;10;10;
55518;PMS5003;41724;51.176;-0.708;2023-09-18T05:34:51;8;8;
55518;PMS5003;41724;51.176;-0.708;2023-09-18T05:37:18;9;9;
55518;PMS5003;41724;51.176;-0.708;2023-09-18T05:39:45;11;10;
55518;PMS5003;41724;51.176;-0.708;2023-09-18T05:42:12;10;9;
55518;PMS5003;41724;51.176;-0.708;2023-09-18T05:44:39;11;11;
55518;PMS5003;41724;51.176;-0.708;2023-09-18T05:47:06;10;9;
55518;PMS5003;41724;51.176;-0.708;2023-09-18T05:49:33;9;8;
55518;PMS5003;41724;51.176;-0.708;2023-09-18T05:52:00;10;10;
55518;PMS5003;41724;51.176;-0.708;2023-09-18T05:54:27;10;9;
55518;PMS5003;41724;51.176;-0.708;2023-09-18T05:56:54;8;8;
55518;PMS5003;41724;51.176;-0.708;2023-09-18T05:59:21;7;7;
55518;PMS5003;41724;51.176;-0.708;2023-09-18T06:01:48;10;10;
55518;PMS5003;41724;51.176;-0.708;2023-09-18T06:04:15;7;7;
55518;PMS5003;41724;51.176;-0.708;2023-09-18T06:06:42;9;9;
55518;PMS5003;41724;51.176;-0.708;2023-09-18T06:09:09;10;9;
55518;PMS5003;41724;51.176;-0.708;2023-09-18T06:11:36;10;9;
55518;PMS5003;41724;51.176;-0.708;2023-09-18T06:14:03;8;8;
55518;PMS5003;41724;51.176;-0.708;2023-09-18T06:16:30;8;8;
55518;PMS5003;41724;51.176;-0.708;2023-09-18T06:18:57;12;11;
55518;PMS5003;41724;51.176;-0.708;2023-09-18T06:21:24;6;6;
55518;PMS5003;41724;51.176;-0.708;2023-09-18T06:23:50;8;8;
55518;PMS5003;41724;51.176;-0.708;2023-09-18T06:26:17;10;8;
55518;PMS5003;41724;51.176;-0.708;2023-09-18T06:28:44;8;8;
55518;PMS5003;41724;51.176;-0.708;2023-09-18T06:31:12;8;8;
55518;PMS5003;41724;51.176;-0.708;2023-09-18T06:33:39;5;5;
55518;PMS5003;41724;51.176;-0.708;2023-09-18T06:36:06;8;7;
55518;PMS5003;41724;51.176;-0.708;2023-09-18T06:38:32;6;6;
55518;PMS5003;41724;51.176;-0.708;2023-09-18T06:40:59;8;6;
55518;PMS5003;41724;51.176;-0.708;2023-09-18T06:43:26;6;6;
55518;PMS5003;41724;51.176;-0.708;2023-09-18T06:45:53;6;6;
55518;PMS5003;41724;51.176;-0.708;2023-09-18T06:48:20;7;6;
55518;PMS5003;41724;51.176;-0.708;2023-09-18T06:50:47;7;7;
55518;PMS5003;41724;51.176;-0.708;2023-09-18T06:53:14;8;7;
55518;PMS5003;41724;51.176;-0.708;2023-09-18T06:55:41;6;5;
55518;PMS5003;41724;51.176;-0.708;2023-09-18T06:58:08;8;8;
55518;PMS5003;41724;51.176;-0.708;2023-09-18T07:00:35;6;6;
55518;PMS5003;41724;51.176;-0.708;2023-09-18T07:03:02;6;6;
55518;PMS5003;41724;51.176;-0.708;2023-09-18T07:05:30;4;4;
55518;PMS5003;41724;51.176;-0.708;2023-09-18T07:07:58;4;4;
55518;PMS5003;41724;51.176;-0.708;2023-09-18T07:10:25;5;5;
55518;PMS5003;41724;51.176;-0.708;2023-09-18T07:12:52;5;5;
55518;PMS5003;41724;51.176;-0.708;2023-09-18T07:15:19;7;7;
55518;PMS5003;41724;51.176;-0.708;2023-09-18T07:17:46;5;5;
55518;PMS5003;41724;51.176;-0.708;2023-09-18T07:20:13;6;5;
55518;PMS5003;41724;51.176;-0.708;2023-09-18T07:22:44;6;5;
55518;PMS5003;41724;51.176;-0.708;2023-09-18T07:25:12;6;5;
55518;PMS5003;41724;51.176;-0.708;2023-09-18T07:27:39;5;4;
55518;PMS5003;41724;51.176;-0.708;2023-09-18T07:30:07;5;5;
55518;PMS5003;41724;51.176;-0.708;2023-09-18T07:32:34;8;7;
55518;PMS5003;41724;51.176;-0.708;2023-09-18T07:35:01;7;6;
55518;PMS5003;41724;51.176;-0.708;2023-09-18T07:37:28;5;5;
55518;PMS5003;41724;51.176;-0.708;2023-09-18T07:39:55;7;7;
55518;PMS5003;41724;51.176;-0.708;2023-09-18T07:42:23;5;5;
55518;PMS5003;41724;51.176;-0.708;2023-09-18T07:44:51;8;8;
55518;PMS5003;41724;51.176;-0.708;2023-09-18T07:47:18;7;7;
55518;PMS5003;41724;51.176;-0.708;2023-09-18T07:49:47;5;5;
55518;PMS5003;41724;51.176;-0.708;2023-09-18T07:52:14;7;7;
55518;PMS5003;41724;51.176;-0.708;2023-09-18T07:54:41;3;3;
55518;PMS5003;41724;51.176;-0.708;2023-09-18T07:57:09;5;5;
55518;PMS5003;41724;51.176;-0.708;2023-09-18T07:59:36;6;5;
55518;PMS5003;41724;51.176;-0.708;2023-09-18T08:02:03;5;5;
55518;PMS5003;41724;51.176;-0.708;2023-09-18T08:04:30;6;5;
55518;PMS5003;41724;51.176;-0.708;2023-09-18T08:06:58;5;5;
55518;PMS5003;41724;51.176;-0.708;2023-09-18T08:09:25;4;4;
55518;PMS5003;41724;51.176;-0.708;2023-09-18T08:11:52;5;4;
55518;PMS5003;41724;51.176;-0.708;2023-09-18T08:14:19;3;3;
55518;PMS5003;41724;51.176;-0.708;2023-09-18T08:16:46;3;3;
55518;PMS5003;41724;51.176;-0.708;2023-09-18T08:19:15;4;4;
55518;PMS5003;41724;51.176;-0.708;2023-09-18T08:21:42;7;6;
55518;PMS5003;41724;51.176;-0.708;2023-09-18T08:24:09;5;4;
55518;PMS5003;41724;51.176;-0.708;2023-09-18T08:26:36;3;3;
55518;PMS5003;41724;51.176;-0.708;2023-09-18T08:29:03;5;3;
55518;PMS5003;41724;51.176;-0.708;2023-09-18T08:31:30;3;3;
55518;PMS5003;41724;51.176;-0.708;2023-09-18T08:33:57;7;6;
55518;PMS5003;41724;51.176;-0.708;2023-09-18T08:36:25;4;4;
55518;PMS5003;41724;51.176;-0.708;2023-09-18T08:38:52;7;6;
55518;PMS5003;41724;51.176;-0.708;2023-09-18T08:41:20;3;3;
55518;PMS5003;41724;51.176;-0.708;2023-09-18T08:43:49;3;3;
55518;PMS5003;41724;51.176;-0.708;2023-09-18T08:46:18;7;6;
55518;PMS5003;41724;51.176;-0.708;2023-09-18T08:48:46;4;4;
55518;PMS5003;41724;51.176;-0.708;2023-09-18T08:51:14;3;3;
55518;PMS5003;41724;51.176;-0.708;2023-09-18T08:53:44;2;2;
55518;PMS5003;41724;51.176;-0.708;2023-09-18T08:56:13;5;4;
55518;PMS5003;41724;51.176;-0.708;2023-09-18T08:58:41;4;4;
55518;PMS5003;41724;51.176;-0.708;2023-09-18T09:01:09;4;4;
55518;PMS5003;41724;51.176;-0.708;2023-09-18T09:03:37;4;4;
55518;PMS5003;41724;51.176;-0.708;2023-09-18T09:06:04;4;3;
55518;PMS5003;41724;51.176;-0.708;2023-09-18T09:08:32;3;2;
55518;PMS5003;41724;51.176;-0.708;2023-09-18T09:11:00;4;3;
55518;PMS5003;41724;51.176;-0.708;2023-09-18T09:13:27;2;1;
55518;PMS5003;41724;51.176;-0.708;2023-09-18T09:15:54;2;2;
55518;PMS5003;41724;51.176;-0.708;2023-09-18T09:18:22;1;1;
55518;PMS5003;41724;51.176;-0.708;2023-09-18T09:20:52;3;3;
55518;PMS5003;41724;51.176;-0.708;2023-09-18T09:23:19;3;2;
55518;PMS5003;41724;51.176;-0.708;2023-09-18T09:25:46;2;2;
55518;PMS5003;41724;51.176;-0.708;2023-09-18T09:28:13;2;2;
55518;PMS5003;41724;51.176;-0.708;2023-09-18T09:30:40;2;2;
55518;PMS5003;41724;51.176;-0.708;2023-09-18T09:33:07;3;2;
55518;PMS5003;41724;51.176;-0.708;2023-09-18T09:35:38;2;1;
55518;PMS5003;41724;51.176;-0.708;2023-09-18T09:38:08;4;4;
55518;PMS5003;41724;51.176;-0.708;2023-09-18T09:40:38;2;2;
55518;PMS5003;41724;51.176;-0.708;2023-09-18T09:43:09;2;2;
55518;PMS5003;41724;51.176;-0.708;2023-09-18T09:45:37;3;2;
55518;PMS5003;41724;51.176;-0.708;2023-09-18T09:48:07;2;2;
55518;PMS5003;41724;51.176;-0.708;2023-09-18T15:01:03;0;0;
55518;PMS5003;41724;51.176;-0.708;2023-09-18T15:03:30;0;0;
55518;PMS5003;41724;51.176;-0.708;2023-09-18T15:05:56;2;2;
55518;PMS5003;41724;51.176;-0.708;2023-09-18T15:08:23;0;0;
55518;PMS5003;41724;51.176;-0.708;2023-09-18T15:10:50;0;0;
55518;PMS5003;41724;51.176;-0.708;2023-09-18T15:13:17;0;0;
55518;PMS5003;41724;51.176;-0.708;2023-09-18T15:15:43;0;0;
55518;PMS5003;41724;51.176;-0.708;2023-09-18T15:18:10;1;1;
55518;PMS5003;41724;51.176;-0.708;2023-09-18T15:20:37;0;0;
55518;PMS5003;41724;51.176;-0.708;2023-09-18T15:23:04;0;0;
55518;PMS5003;41724;51.176;-0.708;2023-09-18T15:25:31;1;1;
55518;PMS5003;41724;51.176;-0.708;2023-09-18T15:27:59;0;0;
55518;PMS5003;41724;51.176;-0.708;2023-09-18T15:30:25;2;1;
55518;PMS5003;41724;51.176;-0.708;2023-09-18T15:32:53;2;1;
55518;PMS5003;41724;51.176;-0.708;2023-09-18T15:35:21;2;2;
55518;PMS5003;41724;51.176;-0.708;2023-09-18T15:37:49;1;1;
55518;PMS5003;41724;51.176;-0.708;2023-09-18T15:40:17;1;1;
55518;PMS5003;41724;51.176;-0.708;2023-09-18T15:42:45;2;2;
55518;PMS5003;41724;51.176;-0.708;2023-09-18T15:45:13;1;1;
55518;PMS5003;41724;51.176;-0.708;2023-09-18T15:47:40;1;1;
55518;PMS5003;41724;51.176;-0.708;2023-09-18T15:50:08;1;1;
55518;PMS5003;41724;51.176;-0.708;2023-09-18T15:52:37;1;0;
55518;PMS5003;41724;51.176;-0.708;2023-09-18T15:55:05;2;2;
55518;PMS5003;41724;51.176;-0.708;2023-09-18T15:57:33;3;2;
55518;PMS5003;41724;51.176;-0.708;2023-09-18T16:00:01;1;1;
55518;PMS5003;41724;51.176;-0.708;2023-09-18T16:02:30;2;2;
55518;PMS5003;41724;51.176;-0.708;2023-09-18T16:04:57;3;1;
55518;PMS5003;41724;51.176;-0.708;2023-09-18T16:07:25;1;1;
55518;PMS5003;41724;51.176;-0.708;2023-09-18T16:09:52;2;1;
55518;PMS5003;41724;51.176;-0.708;2023-09-18T16:12:19;1;1;
55518;PMS5003;41724;51.176;-0.708;2023-09-18T16:14:46;1;1;
55518;PMS5003;41724;51.176;-0.708;2023-09-18T16:17:13;1;1;
55518;PMS5003;41724;51.176;-0.708;2023-09-18T16:19:40;1;0;
55518;PMS5003;41724;51.176;-0.708;2023-09-18T16:22:08;0;0;
55518;PMS5003;41724;51.176;-0.708;2023-09-18T16:24:35;3;1;
55518;PMS5003;41724;51.176;-0.708;2023-09-18T16:27:03;0;0;
55518;PMS5003;41724;51.176;-0.708;2023-09-18T16:29:30;2;2;
55518;PMS5003;41724;51.176;-0.708;2023-09-18T16:31:57;2;2;
55518;PMS5003;41724;51.176;-0.708;2023-09-18T16:34:24;1;1;
55518;PMS5003;41724;51.176;-0.708;2023-09-18T16:36:52;1;1;
55518;PMS5003;41724;51.176;-0.708;2023-09-18T16:39:19;1;1;
55518;PMS5003;41724;51.176;-0.708;2023-09-18T16:41:46;2;2;
55518;PMS5003;41724;51.176;-0.708;2023-09-18T16:44:13;1;1;
55518;PMS5003;41724;51.176;-0.708;2023-09-18T16:46:40;2;2;
55518;PMS5003;41724;51.176;-0.708;2023-09-18T16:49:07;1;1;
55518;PMS5003;41724;51.176;-0.708;2023-09-18T16:51:34;5;4;
55518;PMS5003;41724;51.176;-0.708;2023-09-18T16:54:02;4;3;
55518;PMS5003;41724;51.176;-0.708;2023-09-18T16:56:30;4;3;
55518;PMS5003;41724;51.176;-0.708;2023-09-18T16:58:57;3;2;
55518;PMS5003;41724;51.176;-0.708;2023-09-18T17:01:25;4;3;
55518;PMS5003;41724;51.176;-0.708;2023-09-18T17:03:52;3;2;
55518;PMS5003;41724;51.176;-0.708;2023-09-18T17:06:19;2;2;
55518;PMS5003;41724;51.176;-0.708;2023-09-18T17:08:46;3;2;
55518;PMS5003;41724;51.176;-0.708;2023-09-18T17:11:13;2;2;
55518;PMS5003;41724;51.176;-0.708;2023-09-18T17:13:40;2;1;
55518;PMS5003;41724;51.176;-0.708;2023-09-18T17:16:06;3;2;
55518;PMS5003;41724;51.176;-0.708;2023-09-18T17:18:33;4;2;
55518;PMS5003;41724;51.176;-0.708;2023-09-18T17:21:00;3;3;
55518;PMS5003;41724;51.176;-0.708;2023-09-18T17:23:27;2;2;
55518;PMS5003;41724;51.176;-0.708;2023-09-18T17:25:54;1;1;
55518;PMS5003;41724;51.176;-0.708;2023-09-18T17:28:21;2;2;
55518;PMS5003;41724;51.176;-0.708;2023-09-18T17:30:48;0;0;
55518;PMS5003;41724;51.176;-0.708;2023-09-18T17:33:15;3;2;
55518;PMS5003;41724;51.176;-0.708;2023-09-18T17:35:42;4;4;
55518;PMS5003;41724;51.176;-0.708;2023-09-18T17:38:09;3;3;
55518;PMS5003;41724;51.176;-0.708;2023-09-18T17:40:36;3;2;
55518;PMS5003;41724;51.176;-0.708;2023-09-18T17:43:03;3;2;
55518;PMS5003;41724;51.176;-0.708;2023-09-18T17:45:30;3;3;
55518;PMS5003;41724;51.176;-0.708;2023-09-18T17:47:57;2;2;
55518;PMS5003;41724;51.176;-0.708;2023-09-18T17:50:24;5;3;
55518;PMS5003;41724;51.176;-0.708;2023-09-18T17:52:51;1;1;
55518;PMS5003;41724;51.176;-0.708;2023-09-18T17:55:18;2;2;
55518;PMS5003;41724;51.176;-0.708;2023-09-18T17:57:45;3;2;
55518;PMS5003;41724;51.176;-0.708;2023-09-18T18:00:12;3;2;
55518;PMS5003;41724;51.176;-0.708;2023-09-18T18:02:40;4;3;
55518;PMS5003;41724;51.176;-0.708;2023-09-18T18:05:07;1;0;
55518;PMS5003;41724;51.176;-0.708;2023-09-18T18:07:35;3;3;
55518;PMS5003;41724;51.176;-0.708;2023-09-18T18:10:01;3;2;
55518;PMS5003;41724;51.176;-0.708;2023-09-18T18:12:28;3;3;
55518;PMS5003;41724;51.176;-0.708;2023-09-18T18:14:55;3;3;
55518;PMS5003;41724;51.176;-0.708;2023-09-18T18:17:23;4;4;
55518;PMS5003;41724;51.176;-0.708;2023-09-18T18:19:49;2;2;
55518;PMS5003;41724;51.176;-0.708;2023-09-18T18:22:16;3;2;
55518;PMS5003;41724;51.176;-0.708;2023-09-18T18:24:43;2;1;
55518;PMS5003;41724;51.176;-0.708;2023-09-18T18:27:10;2;1;
55518;PMS5003;41724;51.176;-0.708;2023-09-18T18:29:37;2;2;
55518;PMS5003;41724;51.176;-0.708;2023-09-18T18:32:04;3;2;
55518;PMS5003;41724;51.176;-0.708;2023-09-18T18:34:31;4;3;
55518;PMS5003;41724;51.176;-0.708;2023-09-18T18:36:58;6;6;
55518;PMS5003;41724;51.176;-0.708;2023-09-18T18:39:25;4;4;
55518;PMS5003;41724;51.176;-0.708;2023-09-18T18:41:52;3;2;
55518;PMS5003;41724;51.176;-0.708;2023-09-18T18:44:19;1;1;
55518;PMS5003;41724;51.176;-0.708;2023-09-18T18:46:46;2;1;
55518;PMS5003;41724;51.176;-0.708;2023-09-18T18:49:13;1;1;
55518;PMS5003;41724;51.176;-0.708;2023-09-18T18:51:40;3;3;
55518;PMS5003;41724;51.176;-0.708;2023-09-18T18:54:07;4;2;
55518;PMS5003;41724;51.176;-0.708;2023-09-18T18:56:33;4;3;
55518;PMS5003;41724;51.176;-0.708;2023-09-18T18:59:00;3;2;
55518;PMS5003;41724;51.176;-0.708;2023-09-18T19:01:27;1;0;
55518;PMS5003;41724;51.176;-0.708;2023-09-18T19:03:54;5;3;
55518;PMS5003;41724;51.176;-0.708;2023-09-18T19:06:21;2;2;
55518;PMS5003;41724;51.176;-0.708;2023-09-18T19:08:48;2;1;
55518;PMS5003;41724;51.176;-0.708;2023-09-18T19:11:15;3;1;
55518;PMS5003;41724;51.176;-0.708;2023-09-18T19:13:42;2;2;
55518;PMS5003;41724;51.176;-0.708;2023-09-18T19:16:09;3;2;
55518;PMS5003;41724;51.176;-0.708;2023-09-18T19:18:37;2;2;
55518;PMS5003;41724;51.176;-0.708;2023-09-18T19:21:04;2;2;
55518;PMS5003;41724;51.176;-0.708;2023-09-18T19:23:30;3;3;
55518;PMS5003;41724;51.176;-0.708;2023-09-18T19:25:57;3;2;
55518;PMS5003;41724;51.176;-0.708;2023-09-18T19:28:24;3;2;
55518;PMS5003;41724;51.176;-0.708;2023-09-18T19:30:51;3;3;
55518;PMS5003;41724;51.176;-0.708;2023-09-18T19:33:22;5;3;
55518;PMS5003;41724;51.176;-0.708;2023-09-18T19:35:51;2;2;
55518;PMS5003;41724;51.176;-0.708;2023-09-18T19:38:18;1;0;
55518;PMS5003;41724;51.176;-0.708;2023-09-18T19:40:46;4;2;
55518;PMS5003;41724;51.176;-0.708;2023-09-18T19:43:15;5;4;
55518;PMS5003;41724;51.176;-0.708;2023-09-18T19:45:42;4;3;
55518;PMS5003;41724;51.176;-0.708;2023-09-18T19:48:09;4;4;
55518;PMS5003;41724;51.176;-0.708;2023-09-18T19:50:36;3;3;
55518;PMS5003;41724;51.176;-0.708;2023-09-18T19:53:03;3;2;
55518;PMS5003;41724;51.176;-0.708;2023-09-18T19:55:30;4;3;
55518;PMS5003;41724;51.176;-0.708;2023-09-18T19:57:58;3;2;
55518;PMS5003;41724;51.176;-0.708;2023-09-18T20:00:26;1;1;
55518;PMS5003;41724;51.176;-0.708;2023-09-18T20:02:55;5;4;
55518;PMS5003;41724;51.176;-0.708;2023-09-18T20:05:22;4;3;
55518;PMS5003;41724;51.176;-0.708;2023-09-18T20:07:50;3;2;
55518;PMS5003;41724;51.176;-0.708;2023-09-18T20:10:17;2;2;
55518;PMS5003;41724;51.176;-0.708;2023-09-18T20:12:45;2;2;
55518;PMS5003;41724;51.176;-0.708;2023-09-18T20:15:13;2;2;
55518;PMS5003;41724;51.176;-0.708;2023-09-18T20:17:41;3;3;
55518;PMS5003;41724;51.176;-0.708;2023-09-18T20:20:09;2;2;
55518;PMS5003;41724;51.176;-0.708;2023-09-18T20:22:37;3;2;
55518;PMS5003;41724;51.176;-0.708;2023-09-18T20:25:06;2;2;
55518;PMS5003;41724;51.176;-0.708;2023-09-18T20:27:33;3;3;
55518;PMS5003;41724;51.176;-0.708;2023-09-18T20:30:00;3;2;
55518;PMS5003;41724;51.176;-0.708;2023-09-18T20:32:27;3;3;
55518;PMS5003;41724;51.176;-0.708;2023-09-18T20:34:54;2;2;
55518;PMS5003;41724;51.176;-0.708;2023-09-18T20:37:21;3;3;
55518;PMS5003;41724;51.176;-0.708;2023-09-18T20:39:48;3;3;
55518;PMS5003;41724;51.176;-0.708;2023-09-18T20:42:15;1;1;
55518;PMS5003;41724;51.176;-0.708;2023-09-18T20:44:42;2;2;
55518;PMS5003;41724;51.176;-0.708;2023-09-18T20:47:09;2;1;
55518;PMS5003;41724;51.176;-0.708;2023-09-18T20:49:36;1;1;
55518;PMS5003;41724;51.176;-0.708;2023-09-18T20:52:04;1;1;
55518;PMS5003;41724;51.176;-0.708;2023-09-18T20:54:31;1;1;
55518;PMS5003;41724;51.176;-0.708;2023-09-18T20:56:58;2;1;
55518;PMS5003;41724;51.176;-0.708;2023-09-18T20:59:25;3;2;
55518;PMS5003;41724;51.176;-0.708;2023-09-18T21:01:52;1;1;
55518;PMS5003;41724;51.176;-0.708;2023-09-18T21:04:19;2;1;
55518;PMS5003;41724;51.176;-0.708;2023-09-18T21:06:46;3;2;
55518;PMS5003;41724;51.176;-0.708;2023-09-18T21:09:13;3;1;
55518;PMS5003;41724;51.176;-0.708;2023-09-18T21:11:40;2;2;
55518;PMS5003;41724;51.176;-0.708;2023-09-18T21:14:08;1;1;
55518;PMS5003;41724;51.176;-0.708;2023-09-18T21:16:35;2;0;
55518;PMS5003;41724;51.176;-0.708;2023-09-18T21:19:02;4;3;
55518;PMS5003;41724;51.176;-0.708;2023-09-18T21:21:30;4;3;
55518;PMS5003;41724;51.176;-0.708;2023-09-18T21:23:57;1;1;
55518;PMS5003;41724;51.176;-0.708;2023-09-18T21:26:24;3;2;
55518;PMS5003;41724;51.176;-0.708;2023-09-18T21:28:51;2;2;
55518;PMS5003;41724;51.176;-0.708;2023-09-18T21:31:18;5;3;
55518;PMS5003;41724;51.176;-0.708;2023-09-18T21:33:45;2;1;
55518;PMS5003;41724;51.176;-0.708;2023-09-18T21:36:13;1;1;
55518;PMS5003;41724;51.176;-0.708;2023-09-18T21:38:41;3;3;
55518;PMS5003;41724;51.176;-0.708;2023-09-18T21:41:08;3;2;
55518;PMS5003;41724;51.176;-0.708;2023-09-18T21:43:36;3;2;